createdAt,value
2022-11-29T00:03:00.570Z,5.80
2022-11-29T00:06:07.827Z,5.80
2022-11-29T00:09:12.610Z,5.80
2022-11-29T00:12:14.328Z,5.70
2022-11-29T00:15:16.030Z,5.70
2022-11-29T00:18:17.618Z,5.80
2022-11-29T00:21:19.233Z,5.80
2022-11-29T00:24:21.183Z,5.80
2022-11-29T00:27:22.827Z,5.70
2022-11-29T00:30:27.342Z,5.70
2022-11-29T00:33:29.216Z,5.70
2022-11-29T00:36:31.082Z,5.80
2022-11-29T00:39:32.784Z,5.80
2022-11-29T00:42:34.697Z,5.80
2022-11-29T00:45:36.421Z,5.80
2022-11-29T00:48:38.580Z,5.80
2022-11-29T00:51:40.209Z,5.80
2022-11-29T00:54:42.176Z,5.80
2022-11-29T00:57:44.120Z,5.80
2022-11-29T01:00:46.128Z,5.70
2022-11-29T01:03:48.398Z,5.70
2022-11-29T01:06:53.295Z,5.70
2022-11-29T01:09:54.914Z,5.70
2022-11-29T01:12:56.538Z,5.70
2022-11-29T01:15:58.768Z,5.70
2022-11-29T01:19:00.536Z,5.70
2022-11-29T01:22:02.196Z,5.60
2022-11-29T01:25:05.452Z,5.60
2022-11-29T01:28:07.089Z,5.60
2022-11-29T01:31:11.213Z,5.60
2022-11-29T01:34:12.896Z,5.60
2022-11-29T01:37:14.520Z,5.70
2022-11-29T01:40:16.255Z,5.70
2022-11-29T01:43:18.681Z,5.70
2022-11-29T01:46:20.457Z,5.70
2022-11-29T01:49:33.832Z,5.70
2022-11-29T01:52:35.708Z,5.70
2022-11-29T01:55:40.400Z,5.70
2022-11-29T01:58:44.876Z,5.80
2022-11-29T02:01:46.618Z,5.80
2022-11-29T02:04:49.412Z,5.80
2022-11-29T02:07:54.884Z,5.80
2022-11-29T02:11:12.753Z,5.80
2022-11-29T02:14:22.795Z,5.80
2022-11-29T02:17:27.423Z,5.80
2022-11-29T02:20:39.992Z,5.80
2022-11-29T02:23:44.446Z,5.80
2022-11-29T02:26:54.965Z,5.80
2022-11-29T02:29:56.672Z,5.80
2022-11-29T02:33:10.792Z,5.80
2022-11-29T02:36:31.289Z,5.80
2022-11-29T02:39:45.672Z,5.80
2022-11-29T02:43:24.820Z,5.80
2022-11-29T02:46:38.486Z,5.80
2022-11-29T02:50:24.362Z,5.80
2022-11-29T02:53:49.771Z,5.80
2022-11-29T02:57:13.170Z,5.70
2022-11-29T03:00:24.866Z,5.70
2022-11-29T03:03:58.061Z,5.60
2022-11-29T03:07:25.686Z,5.70
2022-11-29T03:10:39.389Z,5.60
2022-11-29T03:14:07.475Z,5.60
2022-11-29T03:17:30.862Z,5.60
2022-11-29T03:20:38.601Z,5.60
2022-11-29T03:24:11.410Z,5.60
2022-11-29T03:27:21.011Z,5.60
2022-11-29T03:30:22.940Z,5.60
2022-11-29T03:33:59.001Z,5.60
2022-11-29T03:37:25.112Z,5.70
2022-11-29T03:40:40.108Z,5.70
2022-11-29T03:44:22.520Z,5.70
2022-11-29T03:47:30.696Z,5.70
2022-11-29T03:50:41.296Z,5.70
2022-11-29T03:53:55.328Z,5.70
2022-11-29T03:56:57.329Z,5.70
2022-11-29T04:00:07.263Z,5.60
2022-11-29T04:03:32.134Z,5.70
2022-11-29T04:07:01.767Z,5.70
2022-11-29T04:10:20.363Z,5.70
2022-11-29T04:13:35.433Z,5.70
2022-11-29T04:17:16.885Z,5.70
2022-11-29T04:20:55.368Z,5.70
2022-11-29T04:24:09.001Z,5.70
2022-11-29T04:27:36.445Z,5.80
2022-11-29T04:31:12.225Z,5.80
2022-11-29T04:34:44.109Z,5.80
2022-11-29T04:38:03.243Z,5.80
2022-11-29T04:41:20.082Z,5.80
2022-11-29T04:44:34.183Z,5.80
2022-11-29T04:48:13.702Z,5.80
2022-11-29T04:51:58.250Z,5.80
2022-11-29T04:55:33.039Z,5.80
2022-11-29T04:58:59.320Z,5.80
2022-11-29T05:02:10.118Z,5.90
2022-11-29T05:05:34.938Z,5.80
2022-11-29T05:08:51.893Z,5.90
2022-11-29T05:12:22.943Z,5.80
2022-11-29T05:15:36.617Z,5.90
2022-11-29T05:19:20.274Z,5.90
2022-11-29T05:22:29.048Z,5.90
2022-11-29T05:25:55.690Z,5.80
2022-11-29T05:29:00.014Z,5.80
2022-11-29T05:32:32.544Z,5.80
2022-11-29T05:35:43.362Z,5.80
2022-11-29T05:39:14.547Z,5.80
2022-11-29T05:42:37.946Z,5.80
2022-11-29T05:45:56.896Z,5.80
2022-11-29T05:49:17.517Z,5.80
2022-11-29T05:52:44.758Z,5.80
2022-11-29T05:56:02.565Z,5.80
2022-11-29T05:59:09.658Z,5.80
2022-11-29T06:02:26.914Z,5.80
2022-11-29T06:05:47.740Z,5.80
2022-11-29T06:08:59.902Z,5.80
2022-11-29T06:12:16.926Z,5.80
2022-11-29T06:15:30.032Z,5.80
2022-11-29T06:18:42.177Z,5.80
2022-11-29T06:22:17.009Z,5.80
2022-11-29T06:25:44.260Z,5.80
2022-11-29T06:28:58.103Z,5.80
2022-11-29T06:32:40.151Z,5.80
2022-11-29T06:36:07.287Z,5.80
2022-11-29T06:39:10.707Z,5.80
2022-11-29T06:42:12.445Z,5.80
2022-11-29T06:45:15.322Z,5.80
2022-11-29T06:48:25.738Z,5.80
2022-11-29T06:51:42.756Z,5.80
2022-11-29T06:55:12.311Z,5.80
2022-11-29T06:58:48.907Z,5.80
2022-11-29T07:02:00.916Z,5.80
2022-11-29T07:05:25.902Z,5.90
2022-11-29T07:08:27.856Z,5.90
2022-11-29T07:11:29.824Z,5.90
2022-11-29T07:14:31.657Z,5.90
2022-11-29T07:17:37.200Z,5.90
2022-11-29T07:21:14.802Z,5.90
2022-11-29T07:24:31.342Z,5.90
2022-11-29T07:28:06.641Z,6.00
2022-11-29T07:31:46.010Z,6.00
2022-11-29T07:35:01.469Z,6.00
2022-11-29T07:38:44.865Z,6.00
2022-11-29T07:42:01.327Z,6.00
2022-11-29T07:45:20.941Z,6.00
2022-11-29T07:48:22.622Z,6.10
2022-11-29T07:51:25.057Z,6.10
2022-11-29T07:54:26.764Z,6.10
2022-11-29T07:57:28.415Z,6.10
2022-11-29T08:00:30.056Z,6.10
2022-11-29T08:03:32.941Z,6.00
2022-11-29T08:06:36.203Z,6.00
2022-11-29T08:09:37.926Z,6.00
2022-11-29T08:12:45.046Z,6.00
2022-11-29T08:15:47.955Z,6.10
2022-11-29T08:18:53.794Z,6.10
2022-11-29T08:21:55.512Z,6.10
2022-11-29T08:24:58.022Z,6.10
2022-11-29T08:28:18.797Z,6.10
2022-11-29T08:31:21.223Z,6.20
2022-11-29T08:34:24.581Z,6.20
2022-11-29T08:37:26.202Z,6.20
2022-11-29T08:40:31.193Z,6.20
2022-11-29T08:43:33.611Z,6.30
2022-11-29T08:46:53.705Z,6.30
2022-11-29T08:50:01.287Z,6.30
2022-11-29T08:53:21.464Z,6.40
2022-11-29T08:57:10.080Z,6.40
2022-11-29T08:59:44.839Z,6.40
2022-11-29T09:02:48.546Z,6.40
2022-11-29T09:05:50.731Z,6.40
2022-11-29T09:08:56.215Z,6.50
2022-11-29T09:11:57.876Z,6.50
2022-11-29T09:15:04.367Z,6.50
2022-11-29T09:18:06.285Z,6.50
2022-11-29T09:21:17.479Z,6.50
2022-11-29T09:24:20.192Z,6.50
2022-11-29T09:27:21.874Z,6.60
2022-11-29T09:30:23.981Z,6.60
2022-11-29T09:33:25.753Z,6.60
2022-11-29T09:36:29.556Z,6.60
2022-11-29T09:39:31.216Z,6.60
2022-11-29T09:42:57.844Z,6.60
2022-11-29T09:46:22.470Z,6.60
2022-11-29T09:49:39.711Z,6.60
2022-11-29T09:53:18.098Z,6.60
2022-11-29T09:56:42.338Z,6.60
2022-11-29T09:59:49.662Z,6.60
2022-11-29T10:02:59.323Z,6.60
2022-11-29T10:06:23.875Z,6.60
2022-11-29T10:10:12.920Z,6.60
2022-11-29T10:13:31.784Z,6.60
2022-11-29T10:16:49.464Z,6.60
2022-11-29T10:19:59.126Z,6.60
2022-11-29T10:23:42.104Z,6.60
2022-11-29T10:26:44.106Z,6.60
2022-11-29T10:29:50.169Z,6.70
2022-11-29T10:32:57.620Z,6.70
2022-11-29T10:36:04.139Z,6.70
2022-11-29T10:39:28.811Z,6.70
2022-11-29T10:42:49.251Z,6.70
2022-11-29T10:45:55.991Z,6.70
2022-11-29T10:49:04.695Z,6.70
2022-11-29T10:52:19.394Z,6.80
2022-11-29T10:55:22.739Z,6.80
2022-11-29T10:58:28.569Z,6.80
2022-11-29T11:01:33.616Z,6.80
2022-11-29T11:04:43.104Z,6.90
2022-11-29T11:07:47.281Z,6.90
2022-11-29T11:10:58.636Z,6.90
2022-11-29T11:14:06.636Z,6.90
2022-11-29T11:17:32.596Z,7.00
2022-11-29T11:20:39.691Z,7.00
2022-11-29T11:23:59.069Z,7.00
2022-11-29T11:27:01.486Z,7.00
2022-11-29T11:30:06.708Z,7.00
2022-11-29T11:33:19.239Z,7.00
2022-11-29T11:36:20.868Z,7.00
2022-11-29T11:39:23.604Z,7.00
2022-11-29T11:42:40.319Z,7.00
2022-11-29T11:45:42.372Z,7.10
2022-11-29T11:48:44.065Z,7.10
2022-11-29T11:51:45.803Z,7.10
2022-11-29T11:54:55.054Z,7.10
2022-11-29T11:58:16.495Z,7.10
2022-11-29T12:01:30.701Z,7.10
2022-11-29T12:04:35.681Z,7.10
2022-11-29T12:11:16.039Z,7.10
2022-11-29T12:14:28.427Z,7.10
2022-11-29T12:17:46.131Z,7.10
2022-11-29T12:21:17.496Z,7.10
2022-11-29T12:24:29.595Z,7.10
2022-11-29T12:27:31.873Z,7.10
2022-11-29T12:30:35.279Z,7.10
2022-11-29T12:33:55.466Z,7.10
2022-11-29T12:37:02.508Z,7.10
2022-11-29T12:40:39.633Z,7.10
2022-11-29T12:43:59.986Z,7.10
2022-11-29T12:47:38.164Z,7.10
2022-11-29T12:51:27.263Z,7.10
2022-11-29T12:54:40.979Z,7.10
2022-11-29T12:57:53.327Z,7.20
2022-11-29T13:01:21.761Z,7.20
2022-11-29T13:04:50.927Z,7.20
2022-11-29T13:08:18.403Z,7.20
2022-11-29T13:11:29.126Z,7.20
2022-11-29T13:14:49.536Z,7.20
2022-11-29T13:18:13.064Z,7.30
2022-11-29T13:21:19.213Z,7.30
2022-11-29T13:24:45.494Z,7.30
2022-11-29T13:28:05.078Z,7.30
2022-11-29T13:31:12.161Z,7.30
2022-11-29T13:34:32.946Z,7.30
2022-11-29T13:37:57.720Z,7.30
2022-11-29T13:41:22.887Z,7.40
2022-11-29T13:44:39.264Z,7.30
2022-11-29T13:48:38.902Z,7.30
2022-11-29T13:51:41.317Z,7.30
2022-11-29T13:54:43.129Z,7.30
2022-11-29T13:58:20.426Z,7.30
2022-11-29T14:01:51.018Z,7.30
2022-11-29T14:04:52.988Z,7.30
2022-11-29T14:08:27.000Z,7.30
2022-11-29T14:12:06.042Z,7.30
2022-11-29T14:15:21.698Z,7.20
2022-11-29T14:18:40.573Z,7.20
2022-11-29T14:22:06.409Z,7.20
2022-11-29T14:25:49.791Z,7.20
2022-11-29T14:28:44.819Z,7.20
2022-11-29T14:31:53.776Z,7.20
2022-11-29T14:35:12.416Z,7.20
2022-11-29T14:38:30.679Z,7.20
2022-11-29T14:41:55.535Z,7.20
2022-11-29T14:45:01.067Z,7.20
2022-11-29T14:48:03.243Z,7.20
2022-11-29T14:51:17.675Z,7.10
2022-11-29T14:54:20.449Z,7.10
2022-11-29T14:57:46.996Z,7.10
2022-11-29T15:00:48.581Z,7.10
2022-11-29T15:03:50.990Z,7.10
2022-11-29T15:06:56.580Z,7.10
2022-11-29T15:10:02.623Z,7.10
2022-11-29T15:13:04.892Z,7.10
2022-11-29T15:16:31.034Z,7.10
2022-11-29T15:20:00.997Z,7.10
2022-11-29T15:23:07.171Z,7.10
2022-11-29T15:26:18.650Z,7.10
2022-11-29T15:29:31.238Z,7.10
2022-11-29T15:32:33.305Z,7.10
2022-11-29T15:35:36.224Z,7.10
2022-11-29T15:38:43.859Z,7.10
2022-11-29T15:41:45.514Z,7.10
2022-11-29T15:44:48.770Z,7.10
2022-11-29T15:47:50.768Z,7.10
2022-11-29T15:51:03.730Z,7.10
2022-11-29T15:54:21.812Z,7.10
2022-11-29T15:57:35.552Z,7.10
2022-11-29T16:00:37.448Z,7.10
2022-11-29T16:03:43.353Z,7.00
2022-11-29T16:06:46.667Z,7.00
2022-11-29T16:10:04.679Z,7.00
2022-11-29T16:13:25.884Z,7.00
2022-11-29T16:16:28.782Z,7.00
2022-11-29T16:19:36.860Z,7.00
2022-11-29T16:22:39.980Z,7.00
2022-11-29T16:26:12.304Z,7.00
2022-11-29T16:29:21.575Z,7.00
2022-11-29T16:32:32.216Z,7.00
2022-11-29T16:35:34.861Z,7.00
2022-11-29T16:38:36.707Z,7.00
2022-11-29T16:41:39.152Z,7.00
2022-11-29T16:44:41.296Z,7.00
2022-11-29T16:47:47.491Z,7.00
2022-11-29T16:51:08.000Z,7.00
2022-11-29T16:54:22.141Z,6.90
2022-11-29T16:57:24.803Z,7.00
2022-11-29T17:00:33.420Z,7.00
2022-11-29T17:03:35.020Z,7.00
2022-11-29T17:06:39.972Z,7.00
2022-11-29T17:09:42.061Z,7.00
2022-11-29T17:12:48.192Z,7.00
2022-11-29T17:15:50.151Z,7.00
2022-11-29T17:18:56.974Z,6.90
2022-11-29T17:21:58.923Z,6.90
2022-11-29T17:25:00.601Z,6.90
2022-11-29T17:28:02.795Z,6.90
2022-11-29T17:31:21.950Z,6.90
2022-11-29T17:34:23.619Z,6.90
2022-11-29T17:37:25.466Z,6.90
2022-11-29T17:40:27.121Z,6.90
2022-11-29T17:43:31.112Z,6.90
2022-11-29T17:46:35.807Z,6.90
2022-11-29T17:49:37.416Z,6.90
2022-11-29T17:52:39.782Z,6.90
2022-11-29T17:55:44.462Z,6.90
2022-11-29T17:58:46.208Z,6.90
2022-11-29T18:01:48.075Z,6.90
2022-11-29T18:04:49.819Z,6.90
2022-11-29T18:08:04.160Z,6.90
2022-11-29T18:11:11.281Z,6.90
2022-11-29T18:14:15.319Z,6.90
2022-11-29T18:17:17.045Z,6.90
2022-11-29T18:20:18.674Z,6.90
2022-11-29T18:23:20.299Z,6.90
2022-11-29T18:26:25.935Z,6.90
2022-11-29T18:29:38.932Z,6.90
2022-11-29T18:32:41.050Z,6.90
2022-11-29T18:35:42.739Z,6.90
2022-11-29T18:38:47.914Z,6.90
2022-11-29T18:41:50.917Z,6.90
2022-11-29T18:44:57.423Z,6.90
2022-11-29T18:48:00.520Z,6.90
2022-11-29T18:51:04.536Z,6.90
2022-11-29T18:54:06.698Z,6.90
2022-11-29T18:57:08.420Z,6.90
2022-11-29T19:00:10.792Z,6.80
2022-11-29T19:03:12.703Z,6.80
2022-11-29T19:06:16.398Z,6.80
2022-11-29T19:09:23.815Z,6.80
2022-11-29T19:12:25.910Z,6.80
2022-11-29T19:15:27.599Z,6.80
2022-11-29T19:18:29.644Z,6.80
2022-11-29T19:21:34.196Z,6.80
2022-11-29T19:24:35.911Z,6.80
2022-11-29T19:27:43.253Z,6.80
2022-11-29T19:30:45.060Z,6.80
2022-11-29T19:33:47.273Z,6.80
2022-11-29T19:36:48.915Z,6.90
2022-11-29T19:39:51.642Z,6.90
2022-11-29T19:42:53.287Z,6.90
2022-11-29T19:45:58.757Z,6.90
2022-11-29T19:49:01.120Z,6.90
2022-11-29T19:52:03.005Z,6.80
2022-11-29T19:55:04.951Z,6.80
2022-11-29T19:58:09.436Z,6.80
2022-11-29T20:01:13.904Z,6.90
2022-11-29T20:04:16.798Z,6.90
2022-11-29T20:07:18.508Z,6.80
2022-11-29T20:10:20.402Z,6.90
2022-11-29T20:13:22.438Z,6.90
2022-11-29T20:16:24.874Z,6.80
2022-11-29T20:19:26.516Z,6.90
2022-11-29T20:22:28.215Z,6.80
2022-11-29T20:25:30.355Z,6.80
2022-11-29T20:28:32.046Z,6.80
2022-11-29T20:31:35.032Z,6.80
2022-11-29T20:34:38.398Z,6.80
2022-11-29T20:38:17.675Z,6.90
2022-11-29T20:41:30.149Z,6.90
2022-11-29T20:44:44.188Z,6.90
2022-11-29T20:47:55.439Z,6.90
2022-11-29T20:51:00.434Z,6.90
2022-11-29T20:54:02.058Z,6.90
2022-11-29T20:57:03.743Z,6.90
2022-11-29T21:00:11.280Z,6.90
2022-11-29T21:03:16.864Z,6.90
2022-11-29T21:06:18.619Z,6.90
2022-11-29T21:09:20.337Z,6.80
2022-11-29T21:12:22.271Z,6.80
2022-11-29T21:15:24.202Z,6.80
2022-11-29T21:18:28.599Z,6.80
2022-11-29T21:21:54.119Z,6.80
2022-11-29T21:25:01.836Z,6.80
2022-11-29T21:28:10.694Z,6.80
2022-11-29T21:31:14.737Z,6.80
2022-11-29T21:34:16.363Z,6.90
2022-11-29T21:37:21.572Z,6.80
2022-11-29T21:40:32.056Z,6.80
2022-11-29T21:44:04.496Z,6.80
2022-11-29T21:46:55.388Z,6.90
2022-11-29T21:50:00.047Z,6.90
2022-11-29T21:53:02.149Z,6.90
2022-11-29T21:56:09.735Z,6.90
2022-11-29T21:59:11.390Z,6.80
2022-11-29T22:02:13.088Z,6.80
2022-11-29T22:05:16.097Z,6.80
2022-11-29T22:08:18.148Z,6.80
2022-11-29T22:11:31.367Z,6.80
2022-11-29T22:14:35.873Z,6.80
2022-11-29T22:17:37.507Z,6.80
2022-11-29T22:20:39.176Z,6.80
2022-11-29T22:23:40.861Z,6.80
2022-11-29T22:26:43.635Z,6.80
2022-11-29T22:29:48.755Z,6.80
2022-11-29T22:32:50.426Z,6.80
2022-11-29T22:35:52.079Z,6.80
2022-11-29T22:38:53.967Z,6.80
2022-11-29T22:42:00.879Z,6.80
2022-11-29T22:45:04.055Z,6.80
2022-11-29T22:48:07.762Z,6.80
2022-11-29T22:51:15.201Z,6.80
2022-11-29T22:54:17.374Z,6.80
2022-11-29T22:57:19.005Z,6.80
2022-11-29T23:00:23.588Z,6.80
2022-11-29T23:03:25.228Z,6.80
2022-11-29T23:06:32.324Z,6.80
2022-11-29T23:09:34.043Z,6.80
2022-11-29T23:12:35.671Z,6.80
2022-11-29T23:15:37.272Z,6.80
2022-11-29T23:18:39.887Z,6.80
2022-11-29T23:21:41.738Z,6.80
2022-11-29T23:24:43.431Z,6.80
2022-11-29T23:27:45.180Z,6.80
2022-11-29T23:30:46.900Z,6.80
2022-11-29T23:33:49.191Z,6.80
2022-11-29T23:36:53.090Z,6.80
2022-11-29T23:39:55.046Z,6.80
2022-11-29T23:42:56.665Z,6.80
2022-11-29T23:45:58.870Z,6.70
2022-11-29T23:49:00.540Z,6.70
2022-11-29T23:52:14.471Z,6.70
2022-11-29T23:55:16.970Z,6.70
2022-11-29T23:58:18.820Z,6.70
